Maramuni Airport


Codes: AYRM/MWI
Name: Maramuni Airport
City: Maramuni
Country: Papua New Guinea
Elevation: 5160 ft.

Photos at Maramuni Airport


   Photos courtesy of SpottingLog. You can add your own sightings and photos by signing up for a free trial today.



No photos found.

Weather at Maramuni Airport


Time (UTC)DescriptionTempratureWindCloud coverageVisibilityPressureHumidity
25-Jun-2024 12:00Light Rain17°C2 mph, S91%10000m1017hPa98%
25-Jun-2024 15:00Overcast Clouds17°C4 mph, S90%10000m1017hPa97%
25-Jun-2024 18:00Overcast Clouds16°C4 mph, S91%10000m1016hPa96%
25-Jun-2024 21:00Overcast Clouds16°C4 mph, S100%10000m1017hPa91%
26-Jun-2024 00:00Broken Clouds24°C4 mph, NE61%10000m1015hPa60%
26-Jun-2024 03:00Light Rain25°C7 mph, NE28%10000m1012hPa70%
26-Jun-2024 06:00Light Rain21°C2 mph, NE54%6230m1012hPa96%
26-Jun-2024 09:00Light Rain19°C0 mph, SE95%4377m1015hPa99%
26-Jun-2024 12:00Overcast Clouds17°C2 mph, S86%10000m1017hPa98%
26-Jun-2024 15:00Broken Clouds16°C4 mph, S70%10000m1016hPa97%
26-Jun-2024 18:00Broken Clouds16°C4 mph, S53%10000m1015hPa96%
26-Jun-2024 21:00Broken Clouds17°C4 mph, S52%10000m1017hPa94%
27-Jun-2024 00:00Broken Clouds24°C4 mph, NE55%10000m1015hPa64%
27-Jun-2024 03:00Light Rain23°C4 mph, NE77%10000m1013hPa80%
27-Jun-2024 06:00Light Rain21°C2 mph, NE89%2415m1013hPa99%
27-Jun-2024 09:00Light Rain19°C0 mph, E95%2001m1015hPa98%
27-Jun-2024 12:00Light Rain18°C2 mph, S97%10000m1016hPa98%
27-Jun-2024 15:00Light Rain17°C2 mph, S86%10000m1016hPa98%
27-Jun-2024 18:00Light Rain17°C4 mph, S74%10000m1015hPa98%
27-Jun-2024 21:00Light Rain17°C2 mph, S100%10000m1017hPa97%
28-Jun-2024 00:00Light Rain23°C4 mph, NE99%10000m1016hPa74%
28-Jun-2024 03:00Light Rain23°C4 mph, NE99%10000m1013hPa79%
28-Jun-2024 06:00Light Rain21°C2 mph, NE93%5157m1013hPa98%
28-Jun-2024 09:00Light Rain19°C0 mph, N100%0m1015hPa100%
28-Jun-2024 12:00Light Rain19°C0 mph, SE100%7857m1016hPa99%
28-Jun-2024 15:00Moderate Rain18°C2 mph, S100%10000m1015hPa98%
28-Jun-2024 18:00Light Rain18°C2 mph, S100%10000m1015hPa97%
28-Jun-2024 21:00Overcast Clouds18°C2 mph, S100%10000m1016hPa95%
29-Jun-2024 00:00Overcast Clouds20°C2 mph, NE100%10000m1015hPa86%
29-Jun-2024 03:00Light Rain23°C4 mph, NE100%10000m1012hPa80%
29-Jun-2024 06:00Light Rain20°C2 mph, NE100%6237m1012hPa97%
29-Jun-2024 09:00Light Rain19°C0 mph, NE99%1712m1014hPa100%
29-Jun-2024 12:00Light Rain18°C2 mph, SW99%10000m1016hPa99%
29-Jun-2024 15:00Moderate Rain18°C2 mph, SW100%10000m1015hPa99%
29-Jun-2024 18:00Light Rain18°C2 mph, SE100%10000m1014hPa98%
29-Jun-2024 21:00Overcast Clouds18°C2 mph, SE100%10000m1015hPa98%
30-Jun-2024 00:00Light Rain19°C2 mph, E99%10000m1016hPa99%
30-Jun-2024 03:00Light Rain21°C4 mph, NE100%1805m1013hPa97%
30-Jun-2024 06:00Light Rain20°C2 mph, NE100%9551m1012hPa97%
30-Jun-2024 09:00Light Rain18°C2 mph, N100%0m1014hPa101%